sensor_id;sensor_type;location;lat;lon;timestamp;P1;durP1;ratioP1;P2;durP2;ratioP2
10550;SDS011;5324;50.684;3.862;2023-07-31T00:00:33;8.10;;;3.47;;
10550;SDS011;5324;50.684;3.862;2023-07-31T00:02:59;5.53;;;2.97;;
10550;SDS011;5324;50.684;3.862;2023-07-31T00:05:25;5.20;;;3.05;;
10550;SDS011;5324;50.684;3.862;2023-07-31T00:07:51;6.85;;;3.35;;
10550;SDS011;5324;50.684;3.862;2023-07-31T00:10:19;6.97;;;3.13;;
10550;SDS011;5324;50.684;3.862;2023-07-31T00:12:45;7.07;;;3.00;;
10550;SDS011;5324;50.684;3.862;2023-07-31T00:15:11;6.90;;;2.65;;
10550;SDS011;5324;50.684;3.862;2023-07-31T00:17:37;4.35;;;2.83;;
10550;SDS011;5324;50.684;3.862;2023-07-31T00:20:03;9.60;;;3.15;;
10550;SDS011;5324;50.684;3.862;2023-07-31T00:22:29;4.82;;;3.00;;
10550;SDS011;5324;50.684;3.862;2023-07-31T00:24:56;4.82;;;3.08;;
10550;SDS011;5324;50.684;3.862;2023-07-31T00:27:22;6.15;;;3.08;;
10550;SDS011;5324;50.684;3.862;2023-07-31T00:29:48;6.18;;;3.38;;
10550;SDS011;5324;50.684;3.862;2023-07-31T00:32:14;5.68;;;3.30;;
10550;SDS011;5324;50.684;3.862;2023-07-31T00:34:40;6.43;;;3.17;;
10550;SDS011;5324;50.684;3.862;2023-07-31T00:37:06;6.82;;;3.22;;
10550;SDS011;5324;50.684;3.862;2023-07-31T00:39:33;6.00;;;3.08;;
10550;SDS011;5324;50.684;3.862;2023-07-31T00:42:00;5.38;;;3.30;;
10550;SDS011;5324;50.684;3.862;2023-07-31T00:44:26;5.95;;;3.17;;
10550;SDS011;5324;50.684;3.862;2023-07-31T00:46:52;5.32;;;2.90;;
10550;SDS011;5324;50.684;3.862;2023-07-31T00:49:18;6.78;;;2.90;;
10550;SDS011;5324;50.684;3.862;2023-07-31T00:51:45;4.90;;;2.97;;
10550;SDS011;5324;50.684;3.862;2023-07-31T00:54:11;6.25;;;3.63;;
10550;SDS011;5324;50.684;3.862;2023-07-31T00:56:37;5.10;;;2.60;;
10550;SDS011;5324;50.684;3.862;2023-07-31T00:59:04;4.20;;;2.83;;
10550;SDS011;5324;50.684;3.862;2023-07-31T01:01:29;6.65;;;3.00;;
10550;SDS011;5324;50.684;3.862;2023-07-31T01:03:55;6.03;;;3.13;;
10550;SDS011;5324;50.684;3.862;2023-07-31T01:06:34;4.60;;;2.92;;
10550;SDS011;5324;50.684;3.862;2023-07-31T01:09:03;5.43;;;3.28;;
10550;SDS011;5324;50.684;3.862;2023-07-31T01:11:30;5.05;;;3.10;;
10550;SDS011;5324;50.684;3.862;2023-07-31T01:13:57;6.22;;;3.03;;
10550;SDS011;5324;50.684;3.862;2023-07-31T01:16:23;5.05;;;3.22;;
10550;SDS011;5324;50.684;3.862;2023-07-31T01:18:49;5.55;;;3.08;;
10550;SDS011;5324;50.684;3.862;2023-07-31T01:21:21;6.00;;;3.05;;
10550;SDS011;5324;50.684;3.862;2023-07-31T01:26:34;5.22;;;3.40;;
10550;SDS011;5324;50.684;3.862;2023-07-31T01:31:26;5.18;;;3.33;;
10550;SDS011;5324;50.684;3.862;2023-07-31T01:33:53;8.45;;;3.90;;
10550;SDS011;5324;50.684;3.862;2023-07-31T01:36:20;6.05;;;3.15;;
10550;SDS011;5324;50.684;3.862;2023-07-31T01:38:46;8.80;;;3.45;;
10550;SDS011;5324;50.684;3.862;2023-07-31T01:41:12;5.40;;;3.25;;
10550;SDS011;5324;50.684;3.862;2023-07-31T01:43:38;5.18;;;3.15;;
10550;SDS011;5324;50.684;3.862;2023-07-31T01:46:05;4.93;;;3.42;;
10550;SDS011;5324;50.684;3.862;2023-07-31T01:48:31;6.38;;;3.47;;
10550;SDS011;5324;50.684;3.862;2023-07-31T01:51:00;5.20;;;3.45;;
10550;SDS011;5324;50.684;3.862;2023-07-31T01:53:27;4.30;;;3.03;;
10550;SDS011;5324;50.684;3.862;2023-07-31T01:55:53;5.15;;;3.00;;
10550;SDS011;5324;50.684;3.862;2023-07-31T01:58:19;4.47;;;3.03;;
10550;SDS011;5324;50.684;3.862;2023-07-31T02:00:45;4.53;;;2.95;;
10550;SDS011;5324;50.684;3.862;2023-07-31T02:03:11;6.43;;;3.30;;
10550;SDS011;5324;50.684;3.862;2023-07-31T02:05:44;4.00;;;3.25;;
10550;SDS011;5324;50.684;3.862;2023-07-31T02:08:11;8.40;;;3.92;;
10550;SDS011;5324;50.684;3.862;2023-07-31T02:10:38;2.78;;;2.40;;
10550;SDS011;5324;50.684;3.862;2023-07-31T02:13:04;3.30;;;3.00;;
10550;SDS011;5324;50.684;3.862;2023-07-31T02:15:31;4.50;;;2.95;;
10550;SDS011;5324;50.684;3.862;2023-07-31T02:17:57;3.33;;;2.70;;
10550;SDS011;5324;50.684;3.862;2023-07-31T02:20:23;4.82;;;2.75;;
10550;SDS011;5324;50.684;3.862;2023-07-31T02:22:50;5.10;;;2.90;;
10550;SDS011;5324;50.684;3.862;2023-07-31T02:25:16;5.93;;;3.10;;
10550;SDS011;5324;50.684;3.862;2023-07-31T02:27:42;5.03;;;2.97;;
10550;SDS011;5324;50.684;3.862;2023-07-31T02:30:08;4.18;;;3.15;;
10550;SDS011;5324;50.684;3.862;2023-07-31T02:32:35;4.68;;;2.60;;
10550;SDS011;5324;50.684;3.862;2023-07-31T02:35:01;6.07;;;2.90;;
10550;SDS011;5324;50.684;3.862;2023-07-31T02:37:27;5.53;;;3.00;;
10550;SDS011;5324;50.684;3.862;2023-07-31T02:39:54;4.32;;;2.63;;
10550;SDS011;5324;50.684;3.862;2023-07-31T02:42:20;6.53;;;3.10;;
10550;SDS011;5324;50.684;3.862;2023-07-31T02:44:46;3.97;;;2.80;;
10550;SDS011;5324;50.684;3.862;2023-07-31T02:47:12;4.57;;;3.28;;
10550;SDS011;5324;50.684;3.862;2023-07-31T02:49:38;3.47;;;2.58;;
10550;SDS011;5324;50.684;3.862;2023-07-31T02:52:04;3.72;;;2.92;;
10550;SDS011;5324;50.684;3.862;2023-07-31T02:54:30;4.35;;;2.80;;
10550;SDS011;5324;50.684;3.862;2023-07-31T02:56:56;4.38;;;3.00;;
10550;SDS011;5324;50.684;3.862;2023-07-31T02:59:22;5.95;;;2.88;;
10550;SDS011;5324;50.684;3.862;2023-07-31T03:01:48;3.65;;;2.60;;
10550;SDS011;5324;50.684;3.862;2023-07-31T03:04:15;3.40;;;2.55;;
10550;SDS011;5324;50.684;3.862;2023-07-31T03:06:41;3.22;;;2.55;;
10550;SDS011;5324;50.684;3.862;2023-07-31T03:09:07;5.38;;;3.15;;
10550;SDS011;5324;50.684;3.862;2023-07-31T03:11:33;4.13;;;2.80;;
10550;SDS011;5324;50.684;3.862;2023-07-31T03:13:59;4.55;;;3.00;;
10550;SDS011;5324;50.684;3.862;2023-07-31T03:16:25;4.05;;;3.03;;
10550;SDS011;5324;50.684;3.862;2023-07-31T03:18:51;4.88;;;2.97;;
10550;SDS011;5324;50.684;3.862;2023-07-31T03:21:18;5.47;;;2.65;;
10550;SDS011;5324;50.684;3.862;2023-07-31T03:23:44;6.93;;;2.88;;
10550;SDS011;5324;50.684;3.862;2023-07-31T03:26:10;3.72;;;2.50;;
10550;SDS011;5324;50.684;3.862;2023-07-31T03:28:36;3.53;;;2.63;;
10550;SDS011;5324;50.684;3.862;2023-07-31T03:31:02;4.80;;;2.80;;
10550;SDS011;5324;50.684;3.862;2023-07-31T03:33:28;3.15;;;2.08;;
10550;SDS011;5324;50.684;3.862;2023-07-31T03:35:54;4.97;;;2.38;;
10550;SDS011;5324;50.684;3.862;2023-07-31T03:38:20;5.03;;;2.50;;
10550;SDS011;5324;50.684;3.862;2023-07-31T03:40:46;2.83;;;2.40;;
10550;SDS011;5324;50.684;3.862;2023-07-31T03:43:12;4.22;;;2.55;;
10550;SDS011;5324;50.684;3.862;2023-07-31T03:45:38;3.53;;;2.65;;
10550;SDS011;5324;50.684;3.862;2023-07-31T03:48:04;5.13;;;2.60;;
10550;SDS011;5324;50.684;3.862;2023-07-31T03:50:30;4.95;;;2.65;;
10550;SDS011;5324;50.684;3.862;2023-07-31T03:52:56;2.60;;;2.40;;
10550;SDS011;5324;50.684;3.862;2023-07-31T03:55:22;3.80;;;2.70;;
10550;SDS011;5324;50.684;3.862;2023-07-31T03:57:48;3.58;;;2.47;;
10550;SDS011;5324;50.684;3.862;2023-07-31T04:00:14;3.45;;;2.78;;
10550;SDS011;5324;50.684;3.862;2023-07-31T04:02:41;4.60;;;2.60;;
10550;SDS011;5324;50.684;3.862;2023-07-31T04:05:07;4.50;;;2.65;;
10550;SDS011;5324;50.684;3.862;2023-07-31T04:07:33;5.55;;;2.40;;
10550;SDS011;5324;50.684;3.862;2023-07-31T04:09:59;6.68;;;2.63;;
10550;SDS011;5324;50.684;3.862;2023-07-31T04:12:25;4.22;;;2.50;;
10550;SDS011;5324;50.684;3.862;2023-07-31T04:14:52;5.32;;;3.30;;
10550;SDS011;5324;50.684;3.862;2023-07-31T04:17:18;5.65;;;2.83;;
10550;SDS011;5324;50.684;3.862;2023-07-31T04:19:44;4.50;;;2.90;;
10550;SDS011;5324;50.684;3.862;2023-07-31T04:22:10;3.70;;;2.75;;
10550;SDS011;5324;50.684;3.862;2023-07-31T04:24:36;2.90;;;2.35;;
10550;SDS011;5324;50.684;3.862;2023-07-31T04:27:02;4.82;;;2.40;;
10550;SDS011;5324;50.684;3.862;2023-07-31T04:29:28;5.15;;;2.40;;
10550;SDS011;5324;50.684;3.862;2023-07-31T04:31:54;3.30;;;2.50;;
10550;SDS011;5324;50.684;3.862;2023-07-31T04:34:20;5.03;;;2.78;;
10550;SDS011;5324;50.684;3.862;2023-07-31T04:36:46;3.95;;;2.38;;
10550;SDS011;5324;50.684;3.862;2023-07-31T04:39:12;4.13;;;2.70;;
10550;SDS011;5324;50.684;3.862;2023-07-31T04:41:38;6.28;;;2.92;;
10550;SDS011;5324;50.684;3.862;2023-07-31T04:44:04;4.47;;;2.72;;
10550;SDS011;5324;50.684;3.862;2023-07-31T04:46:30;4.50;;;2.60;;
10550;SDS011;5324;50.684;3.862;2023-07-31T04:48:56;4.45;;;2.80;;
10550;SDS011;5324;50.684;3.862;2023-07-31T04:51:22;4.47;;;2.60;;
10550;SDS011;5324;50.684;3.862;2023-07-31T04:53:48;4.22;;;2.70;;
10550;SDS011;5324;50.684;3.862;2023-07-31T04:56:15;3.03;;;2.28;;
10550;SDS011;5324;50.684;3.862;2023-07-31T04:58:41;3.08;;;2.60;;
10550;SDS011;5324;50.684;3.862;2023-07-31T05:01:07;4.07;;;2.45;;
10550;SDS011;5324;50.684;3.862;2023-07-31T05:03:33;3.70;;;2.75;;
10550;SDS011;5324;50.684;3.862;2023-07-31T05:05:59;5.43;;;2.45;;
10550;SDS011;5324;50.684;3.862;2023-07-31T05:08:25;3.97;;;2.55;;
10550;SDS011;5324;50.684;3.862;2023-07-31T05:10:51;4.03;;;2.42;;
10550;SDS011;5324;50.684;3.862;2023-07-31T05:13:17;4.43;;;2.33;;
10550;SDS011;5324;50.684;3.862;2023-07-31T05:15:43;5.45;;;2.70;;
10550;SDS011;5324;50.684;3.862;2023-07-31T05:18:09;4.93;;;2.22;;
10550;SDS011;5324;50.684;3.862;2023-07-31T05:20:35;3.90;;;2.67;;
10550;SDS011;5324;50.684;3.862;2023-07-31T05:23:01;3.97;;;2.72;;
10550;SDS011;5324;50.684;3.862;2023-07-31T05:25:27;5.65;;;2.30;;
10550;SDS011;5324;50.684;3.862;2023-07-31T05:27:53;4.55;;;2.83;;
10550;SDS011;5324;50.684;3.862;2023-07-31T05:30:19;4.35;;;3.10;;
10550;SDS011;5324;50.684;3.862;2023-07-31T05:32:46;4.57;;;2.63;;
10550;SDS011;5324;50.684;3.862;2023-07-31T05:35:12;5.72;;;2.67;;
10550;SDS011;5324;50.684;3.862;2023-07-31T05:37:40;4.38;;;2.90;;
10550;SDS011;5324;50.684;3.862;2023-07-31T05:40:06;2.95;;;2.63;;
10550;SDS011;5324;50.684;3.862;2023-07-31T05:42:32;4.72;;;2.80;;
10550;SDS011;5324;50.684;3.862;2023-07-31T05:44:58;5.50;;;2.45;;
10550;SDS011;5324;50.684;3.862;2023-07-31T05:47:24;3.55;;;2.55;;
10550;SDS011;5324;50.684;3.862;2023-07-31T05:49:50;2.65;;;2.15;;
10550;SDS011;5324;50.684;3.862;2023-07-31T05:52:18;2.72;;;1.83;;
10550;SDS011;5324;50.684;3.862;2023-07-31T05:54:44;4.35;;;2.50;;
10550;SDS011;5324;50.684;3.862;2023-07-31T05:57:11;6.22;;;2.58;;
10550;SDS011;5324;50.684;3.862;2023-07-31T05:59:37;4.57;;;2.10;;
10550;SDS011;5324;50.684;3.862;2023-07-31T06:02:03;8.68;;;2.78;;
10550;SDS011;5324;50.684;3.862;2023-07-31T06:04:30;2.83;;;2.10;;
10550;SDS011;5324;50.684;3.862;2023-07-31T06:06:56;6.38;;;2.80;;
10550;SDS011;5324;50.684;3.862;2023-07-31T06:09:22;5.20;;;2.50;;
10550;SDS011;5324;50.684;3.862;2023-07-31T06:11:48;3.83;;;2.17;;
10550;SDS011;5324;50.684;3.862;2023-07-31T06:14:14;3.70;;;2.08;;
10550;SDS011;5324;50.684;3.862;2023-07-31T06:16:40;4.03;;;2.22;;
10550;SDS011;5324;50.684;3.862;2023-07-31T06:19:06;6.60;;;2.65;;
10550;SDS011;5324;50.684;3.862;2023-07-31T06:21:32;3.33;;;2.38;;
10550;SDS011;5324;50.684;3.862;2023-07-31T06:23:59;4.07;;;2.38;;
10550;SDS011;5324;50.684;3.862;2023-07-31T06:26:24;3.53;;;2.60;;
10550;SDS011;5324;50.684;3.862;2023-07-31T06:28:51;3.22;;;2.75;;
10550;SDS011;5324;50.684;3.862;2023-07-31T06:31:17;5.40;;;2.85;;
10550;SDS011;5324;50.684;3.862;2023-07-31T06:33:45;3.65;;;2.60;;
10550;SDS011;5324;50.684;3.862;2023-07-31T06:36:11;4.07;;;2.65;;
10550;SDS011;5324;50.684;3.862;2023-07-31T06:38:37;5.43;;;2.75;;
10550;SDS011;5324;50.684;3.862;2023-07-31T06:41:03;4.40;;;2.40;;
10550;SDS011;5324;50.684;3.862;2023-07-31T06:43:29;4.47;;;2.35;;
10550;SDS011;5324;50.684;3.862;2023-07-31T06:45:56;2.92;;;2.30;;
10550;SDS011;5324;50.684;3.862;2023-07-31T06:48:22;4.25;;;2.90;;
10550;SDS011;5324;50.684;3.862;2023-07-31T06:50:48;3.65;;;2.47;;
10550;SDS011;5324;50.684;3.862;2023-07-31T06:53:14;3.38;;;2.97;;
10550;SDS011;5324;50.684;3.862;2023-07-31T06:55:40;3.78;;;2.50;;
10550;SDS011;5324;50.684;3.862;2023-07-31T06:58:06;4.47;;;2.72;;
10550;SDS011;5324;50.684;3.862;2023-07-31T07:00:32;3.50;;;2.47;;
10550;SDS011;5324;50.684;3.862;2023-07-31T07:02:58;3.88;;;2.65;;
10550;SDS011;5324;50.684;3.862;2023-07-31T07:05:24;4.95;;;2.55;;
10550;SDS011;5324;50.684;3.862;2023-07-31T07:07:50;2.55;;;2.30;;
10550;SDS011;5324;50.684;3.862;2023-07-31T07:10:17;2.70;;;2.50;;
10550;SDS011;5324;50.684;3.862;2023-07-31T07:12:43;4.28;;;2.75;;
10550;SDS011;5324;50.684;3.862;2023-07-31T07:15:09;3.53;;;2.65;;
10550;SDS011;5324;50.684;3.862;2023-07-31T07:17:35;2.97;;;2.30;;
10550;SDS011;5324;50.684;3.862;2023-07-31T07:20:01;4.75;;;2.42;;
10550;SDS011;5324;50.684;3.862;2023-07-31T07:22:28;2.90;;;2.53;;
10550;SDS011;5324;50.684;3.862;2023-07-31T07:24:54;4.03;;;2.67;;
10550;SDS011;5324;50.684;3.862;2023-07-31T07:27:21;3.75;;;2.63;;
10550;SDS011;5324;50.684;3.862;2023-07-31T07:29:47;3.30;;;2.50;;
10550;SDS011;5324;50.684;3.862;2023-07-31T07:32:15;3.15;;;2.70;;
10550;SDS011;5324;50.684;3.862;2023-07-31T07:34:42;3.47;;;2.60;;
10550;SDS011;5324;50.684;3.862;2023-07-31T07:37:08;3.40;;;2.08;;
10550;SDS011;5324;50.684;3.862;2023-07-31T07:39:34;4.68;;;2.53;;
10550;SDS011;5324;50.684;3.862;2023-07-31T07:42:00;4.15;;;2.60;;
10550;SDS011;5324;50.684;3.862;2023-07-31T07:44:27;3.38;;;2.28;;
10550;SDS011;5324;50.684;3.862;2023-07-31T07:46:52;4.13;;;2.22;;
10550;SDS011;5324;50.684;3.862;2023-07-31T07:49:19;2.38;;;1.90;;
10550;SDS011;5324;50.684;3.862;2023-07-31T07:51:47;3.58;;;2.28;;
10550;SDS011;5324;50.684;3.862;2023-07-31T07:54:13;3.38;;;2.38;;
10550;SDS011;5324;50.684;3.862;2023-07-31T07:56:39;2.40;;;2.20;;
10550;SDS011;5324;50.684;3.862;2023-07-31T07:59:06;3.25;;;2.20;;
10550;SDS011;5324;50.684;3.862;2023-07-31T08:01:32;2.40;;;2.05;;
10550;SDS011;5324;50.684;3.862;2023-07-31T08:03:58;3.20;;;2.47;;
10550;SDS011;5324;50.684;3.862;2023-07-31T08:06:24;3.25;;;2.35;;
10550;SDS011;5324;50.684;3.862;2023-07-31T08:08:50;3.67;;;2.70;;
10550;SDS011;5324;50.684;3.862;2023-07-31T08:11:16;3.15;;;2.20;;
10550;SDS011;5324;50.684;3.862;2023-07-31T08:13:42;4.55;;;2.70;;
10550;SDS011;5324;50.684;3.862;2023-07-31T08:16:08;2.80;;;2.20;;
10550;SDS011;5324;50.684;3.862;2023-07-31T08:18:35;3.90;;;2.30;;
10550;SDS011;5324;50.684;3.862;2023-07-31T08:21:01;5.28;;;2.47;;
10550;SDS011;5324;50.684;3.862;2023-07-31T08:23:28;4.93;;;2.47;;
10550;SDS011;5324;50.684;3.862;2023-07-31T08:25:54;2.90;;;2.08;;
10550;SDS011;5324;50.684;3.862;2023-07-31T08:28:20;4.18;;;2.40;;
10550;SDS011;5324;50.684;3.862;2023-07-31T08:30:46;4.22;;;2.38;;
10550;SDS011;5324;50.684;3.862;2023-07-31T08:33:12;2.88;;;2.60;;
10550;SDS011;5324;50.684;3.862;2023-07-31T08:35:38;2.97;;;2.28;;
10550;SDS011;5324;50.684;3.862;2023-07-31T08:38:04;3.83;;;2.58;;
10550;SDS011;5324;50.684;3.862;2023-07-31T08:40:30;4.45;;;2.65;;
10550;SDS011;5324;50.684;3.862;2023-07-31T08:42:56;3.45;;;2.70;;
10550;SDS011;5324;50.684;3.862;2023-07-31T08:45:27;3.50;;;2.50;;
10550;SDS011;5324;50.684;3.862;2023-07-31T08:47:53;3.25;;;2.72;;
10550;SDS011;5324;50.684;3.862;2023-07-31T08:50:19;2.90;;;2.65;;
10550;SDS011;5324;50.684;3.862;2023-07-31T08:52:46;4.43;;;2.30;;
10550;SDS011;5324;50.684;3.862;2023-07-31T08:55:13;2.65;;;2.33;;
10550;SDS011;5324;50.684;3.862;2023-07-31T08:57:39;5.38;;;2.45;;
10550;SDS011;5324;50.684;3.862;2023-07-31T09:00:06;5.28;;;2.78;;
10550;SDS011;5324;50.684;3.862;2023-07-31T09:03:18;3.20;;;2.28;;
10550;SDS011;5324;50.684;3.862;2023-07-31T09:05:19;2.97;;;2.50;;
10550;SDS011;5324;50.684;3.862;2023-07-31T09:07:45;3.83;;;2.45;;
10550;SDS011;5324;50.684;3.862;2023-07-31T09:10:12;2.60;;;2.40;;
10550;SDS011;5324;50.684;3.862;2023-07-31T09:12:38;3.05;;;2.30;;
10550;SDS011;5324;50.684;3.862;2023-07-31T09:15:05;3.15;;;2.60;;
10550;SDS011;5324;50.684;3.862;2023-07-31T09:17:32;3.03;;;2.13;;
10550;SDS011;5324;50.684;3.862;2023-07-31T09:20:18;4.55;;;2.22;;
10550;SDS011;5324;50.684;3.862;2023-07-31T09:22:45;2.80;;;2.50;;
10550;SDS011;5324;50.684;3.862;2023-07-31T09:25:18;3.47;;;2.17;;
10550;SDS011;5324;50.684;3.862;2023-07-31T09:27:57;3.65;;;2.78;;
10550;SDS011;5324;50.684;3.862;2023-07-31T09:30:23;2.95;;;2.30;;
10550;SDS011;5324;50.684;3.862;2023-07-31T09:32:49;2.80;;;2.40;;
10550;SDS011;5324;50.684;3.862;2023-07-31T09:35:32;5.25;;;3.00;;
10550;SDS011;5324;50.684;3.862;2023-07-31T09:37:59;4.05;;;2.20;;
10550;SDS011;5324;50.684;3.862;2023-07-31T09:40:36;2.85;;;2.40;;
10550;SDS011;5324;50.684;3.862;2023-07-31T09:43:06;4.72;;;2.70;;
10550;SDS011;5324;50.684;3.862;2023-07-31T09:45:40;4.85;;;2.78;;
10550;SDS011;5324;50.684;3.862;2023-07-31T09:48:09;4.03;;;2.42;;
10550;SDS011;5324;50.684;3.862;2023-07-31T09:50:36;3.42;;;2.63;;
10550;SDS011;5324;50.684;3.862;2023-07-31T09:53:03;3.20;;;2.50;;
10550;SDS011;5324;50.684;3.862;2023-07-31T09:55:29;2.92;;;2.65;;
10550;SDS011;5324;50.684;3.862;2023-07-31T09:57:57;4.43;;;2.55;;
10550;SDS011;5324;50.684;3.862;2023-07-31T10:00:23;2.72;;;2.53;;
10550;SDS011;5324;50.684;3.862;2023-07-31T10:02:53;4.35;;;2.67;;
10550;SDS011;5324;50.684;3.862;2023-07-31T10:05:20;4.53;;;2.65;;
10550;SDS011;5324;50.684;3.862;2023-07-31T10:08:05;4.00;;;3.05;;
10550;SDS011;5324;50.684;3.862;2023-07-31T10:10:32;3.72;;;2.75;;
10550;SDS011;5324;50.684;3.862;2023-07-31T10:12:59;4.05;;;2.67;;
10550;SDS011;5324;50.684;3.862;2023-07-31T10:15:25;5.15;;;2.97;;
10550;SDS011;5324;50.684;3.862;2023-07-31T10:17:53;3.33;;;2.60;;
10550;SDS011;5324;50.684;3.862;2023-07-31T10:20:20;5.07;;;3.10;;
10550;SDS011;5324;50.684;3.862;2023-07-31T10:22:47;4.60;;;2.90;;
10550;SDS011;5324;50.684;3.862;2023-07-31T10:25:15;4.35;;;3.15;;
10550;SDS011;5324;50.684;3.862;2023-07-31T10:27:41;3.95;;;2.60;;
10550;SDS011;5324;50.684;3.862;2023-07-31T10:30:08;12.13;;;3.10;;
10550;SDS011;5324;50.684;3.862;2023-07-31T10:32:35;4.15;;;3.17;;
10550;SDS011;5324;50.684;3.862;2023-07-31T10:35:02;3.08;;;2.80;;
10550;SDS011;5324;50.684;3.862;2023-07-31T10:37:29;4.15;;;2.85;;
10550;SDS011;5324;50.684;3.862;2023-07-31T10:42:29;3.67;;;2.80;;
10550;SDS011;5324;50.684;3.862;2023-07-31T10:44:57;3.83;;;2.97;;
10550;SDS011;5324;50.684;3.862;2023-07-31T10:47:23;3.35;;;2.33;;
10550;SDS011;5324;50.684;3.862;2023-07-31T10:49:49;3.13;;;2.75;;
10550;SDS011;5324;50.684;3.862;2023-07-31T10:52:19;4.40;;;2.95;;
10550;SDS011;5324;50.684;3.862;2023-07-31T10:54:50;4.30;;;2.78;;
10550;SDS011;5324;50.684;3.862;2023-07-31T10:57:36;7.15;;;3.03;;
10550;SDS011;5324;50.684;3.862;2023-07-31T11:03:00;4.60;;;3.05;;
10550;SDS011;5324;50.684;3.862;2023-07-31T11:08:21;4.22;;;2.65;;
10550;SDS011;5324;50.684;3.862;2023-07-31T11:10:48;3.08;;;2.70;;
10550;SDS011;5324;50.684;3.862;2023-07-31T11:13:15;3.72;;;2.83;;
10550;SDS011;5324;50.684;3.862;2023-07-31T11:15:41;3.55;;;2.70;;
10550;SDS011;5324;50.684;3.862;2023-07-31T11:18:08;3.45;;;2.80;;
10550;SDS011;5324;50.684;3.862;2023-07-31T11:20:36;4.22;;;2.92;;
10550;SDS011;5324;50.684;3.862;2023-07-31T11:23:07;3.45;;;2.80;;
10550;SDS011;5324;50.684;3.862;2023-07-31T11:25:34;3.55;;;3.00;;
10550;SDS011;5324;50.684;3.862;2023-07-31T11:28:06;4.80;;;2.42;;
10550;SDS011;5324;50.684;3.862;2023-07-31T11:30:33;3.60;;;2.30;;
10550;SDS011;5324;50.684;3.862;2023-07-31T11:33:00;6.50;;;2.92;;
10550;SDS011;5324;50.684;3.862;2023-07-31T11:35:28;4.43;;;2.75;;
10550;SDS011;5324;50.684;3.862;2023-07-31T11:37:54;5.57;;;2.70;;
10550;SDS011;5324;50.684;3.862;2023-07-31T11:40:20;4.47;;;2.72;;
10550;SDS011;5324;50.684;3.862;2023-07-31T11:42:46;3.63;;;2.88;;
10550;SDS011;5324;50.684;3.862;2023-07-31T11:45:12;3.28;;;2.70;;
10550;SDS011;5324;50.684;3.862;2023-07-31T11:47:38;3.60;;;2.92;;
10550;SDS011;5324;50.684;3.862;2023-07-31T11:50:05;3.25;;;2.60;;
10550;SDS011;5324;50.684;3.862;2023-07-31T11:52:32;3.00;;;2.50;;
10550;SDS011;5324;50.684;3.862;2023-07-31T11:54:59;3.78;;;2.83;;
10550;SDS011;5324;50.684;3.862;2023-07-31T11:57:26;2.97;;;2.53;;
10550;SDS011;5324;50.684;3.862;2023-07-31T11:59:53;4.35;;;2.92;;
10550;SDS011;5324;50.684;3.862;2023-07-31T12:02:19;3.47;;;2.67;;
10550;SDS011;5324;50.684;3.862;2023-07-31T12:04:46;4.35;;;2.90;;
10550;SDS011;5324;50.684;3.862;2023-07-31T12:07:13;4.45;;;2.95;;
10550;SDS011;5324;50.684;3.862;2023-07-31T12:09:50;4.75;;;2.83;;
10550;SDS011;5324;50.684;3.862;2023-07-31T12:12:19;4.35;;;3.00;;
10550;SDS011;5324;50.684;3.862;2023-07-31T12:14:46;3.47;;;2.55;;
10550;SDS011;5324;50.684;3.862;2023-07-31T12:17:12;4.03;;;2.92;;
10550;SDS011;5324;50.684;3.862;2023-07-31T12:19:38;3.33;;;2.80;;
10550;SDS011;5324;50.684;3.862;2023-07-31T12:22:14;4.50;;;2.97;;
10550;SDS011;5324;50.684;3.862;2023-07-31T12:24:42;3.38;;;2.78;;
10550;SDS011;5324;50.684;3.862;2023-07-31T12:27:18;4.28;;;3.10;;
10550;SDS011;5324;50.684;3.862;2023-07-31T12:29:46;3.85;;;2.85;;
10550;SDS011;5324;50.684;3.862;2023-07-31T12:32:24;3.03;;;2.60;;
10550;SDS011;5324;50.684;3.862;2023-07-31T12:34:50;4.85;;;3.30;;
10550;SDS011;5324;50.684;3.862;2023-07-31T12:37:16;5.18;;;2.83;;
10550;SDS011;5324;50.684;3.862;2023-07-31T12:39:42;3.80;;;3.03;;
10550;SDS011;5324;50.684;3.862;2023-07-31T12:42:09;4.72;;;2.90;;
10550;SDS011;5324;50.684;3.862;2023-07-31T12:44:35;2.90;;;2.53;;
10550;SDS011;5324;50.684;3.862;2023-07-31T12:47:01;3.83;;;2.95;;
10550;SDS011;5324;50.684;3.862;2023-07-31T12:49:27;3.63;;;2.50;;
10550;SDS011;5324;50.684;3.862;2023-07-31T12:51:53;2.65;;;2.10;;
10550;SDS011;5324;50.684;3.862;2023-07-31T12:54:19;4.78;;;2.63;;
10550;SDS011;5324;50.684;3.862;2023-07-31T12:56:45;4.28;;;2.83;;
10550;SDS011;5324;50.684;3.862;2023-07-31T12:59:11;3.45;;;2.35;;
10550;SDS011;5324;50.684;3.862;2023-07-31T13:01:37;2.90;;;2.25;;
10550;SDS011;5324;50.684;3.862;2023-07-31T13:04:03;3.03;;;2.67;;
10550;SDS011;5324;50.684;3.862;2023-07-31T13:06:29;4.15;;;2.72;;
10550;SDS011;5324;50.684;3.862;2023-07-31T13:08:55;2.70;;;2.35;;
10550;SDS011;5324;50.684;3.862;2023-07-31T13:11:21;3.80;;;2.50;;
10550;SDS011;5324;50.684;3.862;2023-07-31T13:13:47;3.70;;;2.50;;
10550;SDS011;5324;50.684;3.862;2023-07-31T13:16:13;4.38;;;2.70;;
10550;SDS011;5324;50.684;3.862;2023-07-31T13:18:39;3.85;;;2.67;;
10550;SDS011;5324;50.684;3.862;2023-07-31T13:21:05;2.92;;;2.17;;
10550;SDS011;5324;50.684;3.862;2023-07-31T13:23:31;3.28;;;2.60;;
10550;SDS011;5324;50.684;3.862;2023-07-31T13:25:57;3.95;;;2.65;;
10550;SDS011;5324;50.684;3.862;2023-07-31T13:28:23;4.05;;;2.55;;
10550;SDS011;5324;50.684;3.862;2023-07-31T13:30:49;3.13;;;2.22;;
10550;SDS011;5324;50.684;3.862;2023-07-31T13:33:15;3.78;;;2.42;;
10550;SDS011;5324;50.684;3.862;2023-07-31T13:35:41;4.00;;;2.63;;
10550;SDS011;5324;50.684;3.862;2023-07-31T13:38:07;3.88;;;2.60;;
10550;SDS011;5324;50.684;3.862;2023-07-31T13:40:34;4.40;;;2.40;;
10550;SDS011;5324;50.684;3.862;2023-07-31T13:43:00;3.00;;;2.47;;
10550;SDS011;5324;50.684;3.862;2023-07-31T13:45:26;4.72;;;2.50;;
10550;SDS011;5324;50.684;3.862;2023-07-31T13:47:53;3.78;;;2.42;;
10550;SDS011;5324;50.684;3.862;2023-07-31T13:50:19;3.85;;;2.63;;
10550;SDS011;5324;50.684;3.862;2023-07-31T13:52:47;2.97;;;2.38;;
10550;SDS011;5324;50.684;3.862;2023-07-31T13:55:13;3.90;;;2.50;;
10550;SDS011;5324;50.684;3.862;2023-07-31T13:57:39;3.22;;;2.10;;
10550;SDS011;5324;50.684;3.862;2023-07-31T14:00:06;2.60;;;2.30;;
10550;SDS011;5324;50.684;3.862;2023-07-31T14:02:33;5.18;;;2.75;;
10550;SDS011;5324;50.684;3.862;2023-07-31T14:04:59;2.20;;;1.85;;
10550;SDS011;5324;50.684;3.862;2023-07-31T14:07:25;3.47;;;2.35;;
10550;SDS011;5324;50.684;3.862;2023-07-31T14:09:51;3.03;;;2.30;;
10550;SDS011;5324;50.684;3.862;2023-07-31T14:12:17;3.38;;;2.10;;
10550;SDS011;5324;50.684;3.862;2023-07-31T14:14:43;2.90;;;2.30;;
10550;SDS011;5324;50.684;3.862;2023-07-31T14:17:09;7.10;;;2.20;;
10550;SDS011;5324;50.684;3.862;2023-07-31T14:19:35;2.28;;;2.00;;
10550;SDS011;5324;50.684;3.862;2023-07-31T14:22:01;2.28;;;2.08;;
10550;SDS011;5324;50.684;3.862;2023-07-31T14:24:28;4.80;;;2.30;;
10550;SDS011;5324;50.684;3.862;2023-07-31T14:26:54;2.60;;;2.10;;
10550;SDS011;5324;50.684;3.862;2023-07-31T14:29:20;2.15;;;1.75;;
10550;SDS011;5324;50.684;3.862;2023-07-31T14:31:46;1.63;;;1.52;;
10550;SDS011;5324;50.684;3.862;2023-07-31T14:34:12;2.03;;;1.73;;
10550;SDS011;5324;50.684;3.862;2023-07-31T14:36:39;1.85;;;1.60;;
10550;SDS011;5324;50.684;3.862;2023-07-31T14:39:05;2.03;;;1.83;;
10550;SDS011;5324;50.684;3.862;2023-07-31T14:41:31;1.75;;;1.52;;
10550;SDS011;5324;50.684;3.862;2023-07-31T14:43:57;1.73;;;1.60;;
10550;SDS011;5324;50.684;3.862;2023-07-31T14:46:23;1.90;;;1.80;;
10550;SDS011;5324;50.684;3.862;2023-07-31T14:48:49;2.22;;;1.95;;
10550;SDS011;5324;50.684;3.862;2023-07-31T14:51:15;1.83;;;1.42;;
10550;SDS011;5324;50.684;3.862;2023-07-31T14:53:42;1.83;;;1.55;;
10550;SDS011;5324;50.684;3.862;2023-07-31T14:56:08;2.35;;;1.88;;
10550;SDS011;5324;50.684;3.862;2023-07-31T14:58:35;1.92;;;1.70;;
10550;SDS011;5324;50.684;3.862;2023-07-31T15:01:01;1.52;;;1.42;;
10550;SDS011;5324;50.684;3.862;2023-07-31T15:03:28;1.88;;;1.50;;
10550;SDS011;5324;50.684;3.862;2023-07-31T15:05:55;1.67;;;1.42;;
10550;SDS011;5324;50.684;3.862;2023-07-31T15:08:21;2.05;;;1.70;;
10550;SDS011;5324;50.684;3.862;2023-07-31T15:10:47;3.75;;;1.60;;